Time;durP1;ratioP1;P1;durP2;ratioP2;P2;SDS_P1;SDS_P2;PMS_P1;PMS_P2;Temp;Humidity;BMP_temperature;BMP_pressure;BME280_temperature;BME280_humidity;BME280_pressure;Samples;Min_cycle;Max_cycle;Signal;HPM_P1;HPM_P2
2022/07/29 00:00:55;;;;;;;2.90;1.00;;;17.60;99.90;;;;;;4837018;29;38677;-79
2022/07/29 00:03:21;;;;;;;2.70;1.33;;;17.50;99.90;;;;;;4834282;29;38293;-80
2022/07/29 00:05:47;;;;;;;2.63;1.30;;;17.50;99.90;;;;;;4821154;29;37877;-79
2022/07/29 00:08:15;;;;;;;1.98;0.90;;;17.50;99.90;;;;;;4834862;29;39279;-79
2022/07/29 00:10:42;;;;;;;1.55;0.80;;;17.50;99.90;;;;;;4821161;29;38666;-79
2022/07/29 00:13:08;;;;;;;2.17;0.80;;;17.50;99.90;;;;;;4839000;29;37358;-79
2022/07/29 00:15:34;;;;;;;1.83;0.90;;;17.50;99.90;;;;;;4838260;29;39875;-79
2022/07/29 00:18:00;;;;;;;3.88;0.93;;;17.50;99.90;;;;;;4822525;29;39141;-79
2022/07/29 00:20:26;;;;;;;3.55;1.23;;;17.40;99.90;;;;;;4818248;29;38263;-80
2022/07/29 00:22:53;;;;;;;2.63;1.20;;;17.30;99.90;;;;;;4837780;29;37380;-79
2022/07/29 00:25:19;;;;;;;2.15;1.08;;;17.40;99.90;;;;;;4821470;29;36768;-79
2022/07/29 00:27:46;;;;;;;1.35;0.80;;;17.40;99.90;;;;;;4821850;29;38012;-79
2022/07/29 00:30:12;;;;;;;4.60;1.08;;;17.40;99.90;;;;;;4839912;29;40005;-80
2022/07/29 00:32:38;;;;;;;4.75;1.20;;;17.30;99.90;;;;;;4857158;29;36821;-79
2022/07/29 00:37:49;;;;;;;2.38;1.50;;;17.30;99.90;;;;;;4858471;29;49047;-80
2022/07/29 00:40:16;;;;;;;2.58;0.90;;;17.30;99.90;;;;;;4839894;29;37249;-79
2022/07/29 00:42:46;;;;;;;1.48;0.90;;;17.20;99.90;;;;;;4838421;29;37056;-80
2022/07/29 00:45:13;;;;;;;3.00;1.20;;;17.20;99.90;;;;;;4858291;29;37085;-78
2022/07/29 00:47:40;;;;;;;4.55;1.00;;;17.20;99.90;;;;;;4842581;29;41294;-80
2022/07/29 00:50:08;;;;;;;1.60;0.90;;;17.20;99.90;;;;;;4839770;29;36777;-79
2022/07/29 00:52:36;;;;;;;4.00;1.05;;;17.20;99.90;;;;;;4841453;29;36595;-79
2022/07/29 00:55:04;;;;;;;2.10;0.93;;;17.20;99.90;;;;;;4839222;29;40810;-80
2022/07/29 00:57:31;;;;;;;2.60;1.27;;;17.20;99.90;;;;;;4841413;29;39173;-78
2022/07/29 00:59:57;;;;;;;2.22;1.35;;;17.10;99.90;;;;;;4858361;29;37576;-79
2022/07/29 01:02:23;;;;;;;3.03;1.00;;;17.10;99.90;;;;;;4842668;29;36683;-80
2022/07/29 01:04:49;;;;;;;1.58;1.10;;;17.10;99.90;;;;;;4858460;29;39495;-80
2022/07/29 01:07:17;;;;;;;2.42;0.93;;;17.10;99.90;;;;;;4845852;29;38042;-79
2022/07/29 01:09:45;;;;;;;5.35;1.00;;;17.10;99.90;;;;;;4852059;29;39310;-79
2022/07/29 01:12:13;;;;;;;2.53;1.00;;;17.10;99.90;;;;;;4854600;29;37223;-79
2022/07/29 01:14:40;;;;;;;2.28;1.10;;;17.10;99.90;;;;;;4832198;29;39150;-78
2022/07/29 01:17:18;;;;;;;3.33;0.80;;;17.00;99.90;;;;;;4851675;29;38873;-80
2022/07/29 01:20:01;;;;;;;4.65;0.90;;;17.10;99.90;;;;;;4855345;29;38194;-79
2022/07/29 01:23:00;;;;;;;1.38;0.90;;;17.00;99.90;;;;;;4856586;29;38281;-79
2022/07/29 01:26:02;;;;;;;5.43;1.52;;;17.00;99.90;;;;;;4839984;29;47476;-81
2022/07/29 01:28:38;;;;;;;1.65;0.95;;;17.00;99.90;;;;;;4850323;29;47118;-80
2022/07/29 01:31:06;;;;;;;3.95;1.02;;;17.00;99.90;;;;;;4835341;29;37398;-80
2022/07/29 01:33:48;;;;;;;1.67;0.98;;;17.00;99.90;;;;;;4822399;29;37672;-81
2022/07/29 01:36:37;;;;;;;2.28;1.00;;;16.90;99.90;;;;;;4845589;29;37098;-79
2022/07/29 01:39:11;;;;;;;7.38;1.35;;;16.90;99.90;;;;;;4833661;29;36884;-80
2022/07/29 01:41:55;;;;;;;2.17;1.00;;;16.90;99.90;;;;;;4834040;29;38899;-80
2022/07/29 01:44:31;;;;;;;2.97;1.10;;;16.90;99.90;;;;;;4836870;29;37391;-78
2022/07/29 01:47:01;;;;;;;4.22;1.25;;;16.80;99.90;;;;;;4836043;29;38738;-79
2022/07/29 01:49:31;;;;;;;2.95;1.13;;;16.80;99.90;;;;;;4841277;29;47315;-79
2022/07/29 01:52:21;;;;;;;1.80;0.82;;;16.80;99.90;;;;;;4836363;29;37980;-79
2022/07/29 01:54:57;;;;;;;3.33;1.00;;;16.80;99.90;;;;;;4820622;29;47316;-80
2022/07/29 01:57:30;;;;;;;2.42;1.00;;;16.80;99.90;;;;;;4839271;29;38693;-80
2022/07/29 01:59:59;;;;;;;3.83;0.93;;;16.80;99.90;;;;;;4836213;29;38236;-79
2022/07/29 02:02:27;;;;;;;2.33;1.13;;;16.80;99.90;;;;;;4836866;29;39089;-79
2022/07/29 02:04:56;;;;;;;6.40;1.40;;;16.80;99.90;;;;;;4841338;29;37823;-79
2022/07/29 02:07:24;;;;;;;2.75;1.05;;;16.80;99.90;;;;;;4821846;29;37801;-78
2022/07/29 02:09:52;;;;;;;4.10;1.27;;;16.80;99.90;;;;;;4819576;29;37592;-79
2022/07/29 02:12:20;;;;;;;5.15;1.60;;;16.70;99.90;;;;;;4821761;29;38181;-80
2022/07/29 02:14:51;;;;;;;4.82;1.67;;;16.70;99.90;;;;;;4825172;29;36338;-79
2022/07/29 02:17:27;;;;;;;2.78;1.10;;;16.70;99.90;;;;;;4823306;29;40723;-80
2022/07/29 02:20:00;;;;;;;2.35;1.20;;;16.70;99.90;;;;;;4821914;29;37838;-79
2022/07/29 02:22:30;;;;;;;1.33;1.00;;;16.70;99.90;;;;;;4821112;29;37405;-80
2022/07/29 02:24:57;;;;;;;2.05;1.23;;;16.60;99.90;;;;;;4835188;29;37936;-81
2022/07/29 02:27:27;;;;;;;3.22;1.10;;;16.60;99.90;;;;;;4813496;29;37480;-80
2022/07/29 02:29:54;;;;;;;4.45;1.02;;;16.60;99.90;;;;;;4817071;29;38238;-80
2022/07/29 02:32:24;;;;;;;1.77;1.10;;;16.60;99.90;;;;;;4855029;29;38777;-81
2022/07/29 02:34:52;;;;;;;3.25;1.30;;;16.60;99.90;;;;;;4843618;29;35888;-79
2022/07/29 02:37:19;;;;;;;1.17;0.88;;;16.60;99.90;;;;;;4838939;29;38099;-80
2022/07/29 02:39:48;;;;;;;2.25;1.20;;;16.50;99.90;;;;;;4854950;29;38671;-81
2022/07/29 02:42:17;;;;;;;3.75;1.25;;;16.50;99.90;;;;;;4837596;29;38511;-82
2022/07/29 02:44:43;;;;;;;2.13;1.10;;;16.50;99.90;;;;;;4855583;29;37286;-80
2022/07/29 02:47:34;;;;;;;2.45;0.95;;;16.50;99.90;;;;;;4837567;29;39779;-81
2022/07/29 02:50:13;;;;;;;3.85;1.20;;;16.40;99.90;;;;;;4835870;29;38812;-82
2022/07/29 02:52:44;;;;;;;3.05;0.90;;;16.40;99.90;;;;;;4840463;29;47007;-80
2022/07/29 02:55:31;;;;;;;5.85;1.42;;;16.40;99.90;;;;;;4837840;29;36024;-79
2022/07/29 02:58:00;;;;;;;3.17;1.20;;;16.40;99.90;;;;;;4857672;29;37717;-80
2022/07/29 03:00:29;;;;;;;2.25;0.90;;;16.40;99.90;;;;;;4842802;29;38980;-81
2022/07/29 03:02:58;;;;;;;3.10;1.25;;;16.30;99.90;;;;;;4845523;29;37589;-81
2022/07/29 03:05:25;;;;;;;4.00;1.42;;;16.30;99.90;;;;;;4840790;29;36443;-80
2022/07/29 03:07:57;;;;;;;2.10;1.02;;;16.30;99.90;;;;;;4857827;29;37726;-81
2022/07/29 03:10:26;;;;;;;3.13;1.33;;;16.30;99.90;;;;;;4856308;29;38629;-82
2022/07/29 03:12:52;;;;;;;2.33;1.30;;;16.30;99.90;;;;;;4845952;29;35934;-79
2022/07/29 03:15:19;;;;;;;3.03;1.10;;;16.20;99.90;;;;;;4864363;29;38457;-81
2022/07/29 03:17:46;;;;;;;2.80;1.30;;;16.20;99.90;;;;;;4854847;29;38724;-80
2022/07/29 03:20:13;;;;;;;3.20;1.40;;;16.20;99.90;;;;;;4858581;29;38750;-81
2022/07/29 03:22:43;;;;;;;3.30;1.30;;;16.20;99.90;;;;;;4834171;29;37528;-80
2022/07/29 03:25:11;;;;;;;2.60;1.10;;;16.20;99.90;;;;;;4836651;29;36910;-81
2022/07/29 03:27:37;;;;;;;1.30;1.08;;;16.20;99.90;;;;;;4854164;29;37613;-80
2022/07/29 03:30:04;;;;;;;4.15;1.15;;;16.20;99.90;;;;;;4840087;29;38161;-80
2022/07/29 03:32:30;;;;;;;2.88;1.40;;;16.20;99.90;;;;;;4852629;29;47112;-80
2022/07/29 03:34:57;;;;;;;2.47;1.13;;;16.20;99.90;;;;;;4839692;29;35988;-80
2022/07/29 03:37:23;;;;;;;4.10;1.20;;;16.20;99.90;;;;;;4858151;29;38367;-79
2022/07/29 03:39:51;;;;;;;5.10;1.38;;;16.20;99.90;;;;;;4858106;29;39079;-81
2022/07/29 03:42:20;;;;;;;3.13;0.93;;;16.20;99.90;;;;;;4843911;29;37573;-80
2022/07/29 03:44:49;;;;;;;3.28;1.70;;;16.20;99.90;;;;;;4858922;29;36372;-80
2022/07/29 03:47:20;;;;;;;6.70;1.15;;;16.20;99.90;;;;;;4841930;29;38257;-80
2022/07/29 03:49:50;;;;;;;3.47;1.20;;;16.20;99.90;;;;;;4840283;29;37757;-81
2022/07/29 03:52:16;;;;;;;5.15;1.60;;;16.20;99.90;;;;;;4856103;29;39255;-80
2022/07/29 03:54:43;;;;;;;4.97;1.40;;;16.20;99.90;;;;;;4842510;29;37506;-79
2022/07/29 03:57:11;;;;;;;4.15;1.42;;;16.10;99.90;;;;;;4845748;29;39669;-80
2022/07/29 03:59:38;;;;;;;3.40;1.40;;;16.20;99.90;;;;;;4840667;29;37788;-81
2022/07/29 04:02:08;;;;;;;3.70;1.58;;;16.10;99.90;;;;;;4852194;29;38922;-80
2022/07/29 04:04:35;;;;;;;4.50;1.42;;;16.10;99.90;;;;;;4826368;29;35585;-80
2022/07/29 04:07:03;;;;;;;4.03;1.67;;;16.10;99.90;;;;;;4857017;29;38147;-81
2022/07/29 04:09:29;;;;;;;2.95;1.25;;;16.10;99.90;;;;;;4845301;29;38727;-80
2022/07/29 04:11:56;;;;;;;2.53;1.33;;;16.10;99.90;;;;;;4840350;29;37424;-80
2022/07/29 04:14:22;;;;;;;7.65;1.33;;;16.10;99.90;;;;;;4843692;29;36043;-80
2022/07/29 04:16:48;;;;;;;2.67;1.30;;;16.20;99.90;;;;;;4841698;29;37681;-80
2022/07/29 04:19:14;;;;;;;3.25;1.42;;;16.20;99.90;;;;;;4836919;29;38014;-81
2022/07/29 04:21:41;;;;;;;3.70;1.80;;;16.20;99.90;;;;;;4857053;29;38999;-81
2022/07/29 04:24:08;;;;;;;1.70;1.40;;;16.10;99.90;;;;;;4852383;29;36617;-81
2022/07/29 04:26:34;;;;;;;2.58;1.40;;;16.10;99.90;;;;;;4848887;29;39007;-80
2022/07/29 04:29:01;;;;;;;2.85;1.20;;;16.10;99.90;;;;;;4838446;29;39083;-81
2022/07/29 04:31:27;;;;;;;5.18;1.63;;;16.00;99.90;;;;;;4852085;29;40176;-81
2022/07/29 04:33:53;;;;;;;4.18;1.40;;;15.90;99.90;;;;;;4852608;29;37065;-79
2022/07/29 04:36:19;;;;;;;2.85;1.85;;;16.00;99.90;;;;;;4839398;29;37533;-80
2022/07/29 04:38:45;;;;;;;4.50;1.50;;;15.90;99.90;;;;;;4856676;29;37646;-79
2022/07/29 04:41:11;;;;;;;3.17;1.50;;;15.90;99.90;;;;;;4863029;29;37400;-80
2022/07/29 04:43:37;;;;;;;3.00;1.70;;;15.80;99.90;;;;;;4879088;29;36298;-80
2022/07/29 04:46:06;;;;;;;2.97;1.38;;;15.80;99.90;;;;;;4876064;29;38545;-80
2022/07/29 04:48:32;;;;;;;5.55;1.88;;;15.80;99.90;;;;;;4848347;29;38877;-80
2022/07/29 04:50:58;;;;;;;2.85;1.50;;;15.80;99.90;;;;;;4838044;29;37639;-81
2022/07/29 04:53:25;;;;;;;4.70;1.70;;;15.80;99.90;;;;;;4835736;29;37024;-80
2022/07/29 04:55:52;;;;;;;3.63;1.83;;;15.70;99.90;;;;;;4854938;29;38787;-81
2022/07/29 04:58:18;;;;;;;4.18;1.58;;;15.70;99.90;;;;;;4852293;29;38363;-81
2022/07/29 05:00:44;;;;;;;2.67;1.90;;;15.70;99.90;;;;;;4851921;29;38220;-81
2022/07/29 05:03:10;;;;;;;3.47;1.73;;;15.70;99.90;;;;;;4839465;29;37416;-79
2022/07/29 05:05:36;;;;;;;3.53;1.92;;;15.70;99.90;;;;;;4838231;29;38945;-81
2022/07/29 05:08:03;;;;;;;2.40;1.45;;;15.70;99.90;;;;;;4853153;29;37648;-80
2022/07/29 05:10:29;;;;;;;2.25;1.60;;;15.70;99.90;;;;;;4853262;29;36660;-81
2022/07/29 05:12:55;;;;;;;4.60;1.80;;;15.70;99.90;;;;;;4840544;29;37119;-81
2022/07/29 05:15:21;;;;;;;3.45;1.77;;;15.70;99.90;;;;;;4852315;29;38648;-81
2022/07/29 05:17:47;;;;;;;6.35;1.73;;;15.70;99.90;;;;;;4858312;29;39972;-82
2022/07/29 05:20:13;;;;;;;3.17;1.60;;;15.80;99.90;;;;;;4842319;29;37774;-81
2022/07/29 05:22:39;;;;;;;2.38;1.60;;;15.80;99.90;;;;;;4841501;29;36306;-81
2022/07/29 05:25:06;;;;;;;3.95;2.00;;;15.90;99.90;;;;;;4852603;29;39809;-80
2022/07/29 05:27:32;;;;;;;3.50;2.08;;;16.00;99.90;;;;;;4837272;29;37619;-80
2022/07/29 05:29:58;;;;;;;5.00;1.95;;;16.30;99.90;;;;;;4856945;29;38957;-80
2022/07/29 05:32:24;;;;;;;4.75;2.03;;;16.50;99.90;;;;;;4851229;29;37904;-80
2022/07/29 05:34:50;;;;;;;4.05;1.60;;;16.70;99.90;;;;;;4852347;29;38908;-79
2022/07/29 05:37:17;;;;;;;3.40;1.55;;;17.00;99.90;;;;;;4850397;29;36426;-78
2022/07/29 05:39:43;;;;;;;3.25;1.60;;;17.30;99.90;;;;;;4854964;29;39407;-77
2022/07/29 05:42:10;;;;;;;2.35;1.70;;;17.50;99.90;;;;;;4850202;29;37787;-80
2022/07/29 05:44:37;;;;;;;4.60;1.60;;;17.40;99.90;;;;;;4837345;29;39029;-79
2022/07/29 05:47:03;;;;;;;3.47;1.42;;;17.30;99.90;;;;;;4839019;29;39055;-79
2022/07/29 05:49:29;;;;;;;4.22;2.03;;;17.30;99.90;;;;;;4859900;29;38125;-78
2022/07/29 05:51:55;;;;;;;3.25;1.80;;;17.50;99.90;;;;;;4836851;29;36113;-79
2022/07/29 05:54:22;;;;;;;3.50;1.50;;;17.50;99.90;;;;;;4852204;29;39557;-79
2022/07/29 05:56:48;;;;;;;4.30;1.67;;;17.50;99.90;;;;;;4841812;29;38652;-79
2022/07/29 05:59:14;;;;;;;2.90;1.83;;;17.40;99.90;;;;;;4842435;29;37449;-79
2022/07/29 06:01:41;;;;;;;4.93;1.35;;;17.30;99.90;;;;;;4839548;29;36087;-78
2022/07/29 06:04:07;;;;;;;2.88;1.50;;;17.40;99.90;;;;;;4842847;29;38621;-78
2022/07/29 06:06:34;;;;;;;4.88;1.65;;;17.50;99.90;;;;;;4839644;29;37990;-78
2022/07/29 06:09:01;;;;;;;7.03;1.88;;;17.70;99.90;;;;;;4859035;29;38170;-78
2022/07/29 06:11:27;;;;;;;4.47;1.90;;;17.90;99.90;;;;;;4858013;29;47177;-78
2022/07/29 06:13:53;;;;;;;4.05;1.83;;;18.00;99.90;;;;;;4862857;29;39326;-79
2022/07/29 06:16:19;;;;;;;4.03;2.10;;;18.10;99.90;;;;;;4841653;29;39015;-78
2022/07/29 06:18:45;;;;;;;4.68;2.53;;;18.30;99.90;;;;;;4845813;29;37233;-77
2022/07/29 06:21:11;;;;;;;2.55;1.70;;;18.40;99.90;;;;;;4838837;29;35240;-77
2022/07/29 06:23:38;;;;;;;3.53;1.92;;;18.60;99.90;;;;;;4836519;29;37916;-77
2022/07/29 06:26:05;;;;;;;2.47;1.58;;;18.70;99.90;;;;;;4838971;29;38991;-78
2022/07/29 06:28:32;;;;;;;3.15;1.50;;;18.80;99.90;;;;;;4834975;29;39157;-78
2022/07/29 06:30:58;;;;;;;4.32;1.50;;;18.90;99.90;;;;;;4853631;29;37244;-77
2022/07/29 06:33:24;;;;;;;2.65;1.65;;;19.00;99.90;;;;;;4853134;29;38748;-79
2022/07/29 06:35:51;;;;;;;4.43;1.88;;;19.20;99.90;;;;;;4836501;29;38612;-77
2022/07/29 06:38:17;;;;;;;2.90;1.50;;;19.40;99.90;;;;;;4838693;29;36238;-78
2022/07/29 06:40:59;;;;;;;3.92;1.38;;;19.50;99.90;;;;;;4839362;29;38570;-79
2022/07/29 06:43:37;;;;;;;3.50;1.60;;;19.70;99.90;;;;;;4836323;29;39237;-78
2022/07/29 06:46:06;;;;;;;4.55;2.00;;;20.00;99.90;;;;;;4832910;29;38551;-77
2022/07/29 06:48:33;;;;;;;4.05;1.83;;;20.00;99.90;;;;;;4834035;29;37387;-80
2022/07/29 06:50:59;;;;;;;5.57;1.90;;;20.10;99.90;;;;;;4838076;29;36313;-79
2022/07/29 06:53:26;;;;;;;5.47;1.90;;;20.10;99.90;;;;;;4852584;29;38258;-78
2022/07/29 06:55:52;;;;;;;4.35;1.95;;;20.20;99.90;;;;;;4838562;29;38285;-78
2022/07/29 06:58:20;;;;;;;4.88;1.73;;;20.30;99.90;;;;;;4839500;29;38385;-78
2022/07/29 07:00:47;;;;;;;3.30;1.48;;;20.40;99.90;;;;;;4857979;29;36846;-79
2022/07/29 07:03:14;;;;;;;3.70;1.73;;;20.60;99.90;;;;;;4853824;29;39150;-79
2022/07/29 07:05:40;;;;;;;4.95;1.88;;;20.80;99.90;;;;;;4855394;29;39206;-79
2022/07/29 07:08:07;;;;;;;4.07;1.65;;;20.90;99.90;;;;;;4837047;29;37394;-78
2022/07/29 07:10:34;;;;;;;3.92;1.85;;;21.10;99.90;;;;;;4838845;29;36053;-79
2022/07/29 07:13:01;;;;;;;6.57;2.08;;;21.30;99.90;;;;;;4853565;29;39776;-79
2022/07/29 07:15:28;;;;;;;2.88;1.70;;;21.50;99.90;;;;;;4836863;29;46943;-78
2022/07/29 07:17:54;;;;;;;4.63;1.88;;;21.50;99.90;;;;;;4853756;29;38876;-78
2022/07/29 07:20:21;;;;;;;5.03;1.90;;;21.50;99.90;;;;;;4853480;29;37855;-78
2022/07/29 07:22:47;;;;;;;2.25;1.10;;;21.50;99.90;;;;;;4836985;29;37655;-80
2022/07/29 07:25:13;;;;;;;3.58;1.48;;;21.40;99.90;;;;;;4854121;29;39194;-80
2022/07/29 07:27:39;;;;;;;7.13;1.45;;;21.50;99.90;;;;;;4841541;29;37446;-80
2022/07/29 07:30:06;;;;;;;3.90;1.50;;;21.50;99.90;;;;;;4861364;29;37271;-80
2022/07/29 07:32:33;;;;;;;3.33;1.50;;;21.80;99.90;;;;;;4864141;29;37683;-81
2022/07/29 07:34:59;;;;;;;5.18;1.58;;;21.90;99.90;;;;;;4842393;29;39168;-79
2022/07/29 07:37:26;;;;;;;5.85;1.60;;;21.90;99.90;;;;;;4861913;29;39410;-80
2022/07/29 07:39:53;;;;;;;4.47;1.50;;;22.00;99.90;;;;;;4862732;29;20054;-81
2022/07/29 07:42:20;;;;;;;4.80;1.52;;;22.00;99.90;;;;;;4851472;29;37625;-79
2022/07/29 07:44:51;;;;;;;3.13;1.40;;;22.10;99.90;;;;;;4868155;29;38245;-80
2022/07/29 07:47:19;;;;;;;6.10;1.83;;;22.30;99.90;;;;;;4858894;29;39352;-81
2022/07/29 07:49:50;;;;;;;5.25;1.60;;;22.50;99.90;;;;;;4858138;29;36339;-79
2022/07/29 07:52:17;;;;;;;4.18;1.48;;;22.70;99.90;;;;;;4850712;29;37946;-80
2022/07/29 07:54:44;;;;;;;3.72;1.60;;;22.90;99.90;;;;;;4847186;29;38694;-81
2022/07/29 07:57:11;;;;;;;3.08;1.48;;;22.90;99.90;;;;;;4840532;29;39987;-81
2022/07/29 07:59:38;;;;;;;2.92;1.70;;;23.00;99.90;;;;;;4850175;29;36254;-84
2022/07/29 08:02:04;;;;;;;2.10;1.35;;;23.10;99.90;;;;;;4846441;29;39106;-82
2022/07/29 08:04:31;;;;;;;5.00;1.70;;;23.00;99.90;;;;;;4848816;29;39407;-81
2022/07/29 08:06:58;;;;;;;3.72;1.67;;;23.00;99.90;;;;;;4850926;29;36987;-82
2022/07/29 08:09:26;;;;;;;3.60;2.00;;;23.00;99.90;;;;;;4843028;29;35848;-82
2022/07/29 08:11:52;;;;;;;3.47;1.55;;;23.10;99.90;;;;;;4845527;29;37933;-81
2022/07/29 08:14:19;;;;;;;8.02;1.70;;;23.40;99.90;;;;;;4843649;29;37703;-82
2022/07/29 08:16:45;;;;;;;4.95;1.85;;;23.60;99.90;;;;;;4848159;29;37543;-81
2022/07/29 08:19:11;;;;;;;5.28;1.50;;;23.70;99.90;;;;;;4866126;29;37331;-81
2022/07/29 08:21:38;;;;;;;3.60;1.80;;;23.90;99.90;;;;;;4867152;29;40011;-80
2022/07/29 08:26:49;;;;;;;5.00;1.48;;;23.90;99.90;;;;;;4868055;29;39603;-80
2022/07/29 08:29:16;;;;;;;4.07;1.70;;;24.00;99.90;;;;;;4842825;29;36757;-78
2022/07/29 08:31:42;;;;;;;3.30;1.30;;;24.10;99.90;;;;;;4863396;29;38579;-81
2022/07/29 08:34:08;;;;;;;3.22;1.05;;;24.00;99.90;;;;;;4860531;29;37554;-81
2022/07/29 08:36:34;;;;;;;3.30;1.33;;;23.90;99.90;;;;;;4840669;29;37367;-82
2022/07/29 08:39:02;;;;;;;3.72;1.35;;;24.30;99.90;;;;;;4848211;29;35930;-82
2022/07/29 08:41:29;;;;;;;3.53;1.30;;;24.40;99.90;;;;;;4846059;29;47537;-81
2022/07/29 08:43:55;;;;;;;4.40;1.13;;;24.50;99.90;;;;;;4849565;29;37859;-79
2022/07/29 08:46:22;;;;;;;3.15;1.17;;;24.70;99.90;;;;;;4862185;29;38246;-81
2022/07/29 08:48:48;;;;;;;6.13;1.40;;;24.70;99.90;;;;;;4863934;29;36841;-78
2022/07/29 08:51:19;;;;;;;4.85;1.10;;;24.60;99.90;;;;;;4844271;29;37808;-79
2022/07/29 08:53:48;;;;;;;2.58;1.23;;;24.50;99.90;;;;;;4862809;29;38629;-79
2022/07/29 08:56:19;;;;;;;2.80;1.17;;;24.30;99.90;;;;;;4847628;29;40368;-80
2022/07/29 08:58:47;;;;;;;5.82;1.25;;;24.60;99.90;;;;;;4847978;29;37016;-79
2022/07/29 09:01:35;;;;;;;6.35;1.40;;;24.40;99.90;;;;;;4845681;29;37946;-77
2022/07/29 09:04:04;;;;;;;4.10;1.63;;;24.10;99.90;;;;;;4849083;29;37821;-78
2022/07/29 09:06:34;;;;;;;4.03;1.52;;;24.00;99.90;;;;;;4857946;29;39164;-77
2022/07/29 09:09:00;;;;;;;4.95;1.50;;;24.30;99.90;;;;;;4844427;29;36412;-80
2022/07/29 09:11:27;;;;;;;4.18;1.48;;;24.60;99.90;;;;;;4843337;29;47043;-78
2022/07/29 09:13:53;;;;;;;1.77;1.30;;;24.70;99.90;;;;;;4848626;29;37713;-79
2022/07/29 09:16:20;;;;;;;3.75;1.50;;;24.90;99.90;;;;;;4863408;29;38857;-78
2022/07/29 09:18:46;;;;;;;4.00;1.40;;;25.00;99.90;;;;;;4850116;29;37025;-80
2022/07/29 09:24:11;;;;;;;4.68;1.55;;;25.20;99.90;;;;;;4862459;29;39101;-76
2022/07/29 09:26:40;;;;;;;5.53;1.83;;;25.20;99.90;;;;;;4836746;29;46967;-77
2022/07/29 09:29:19;;;;;;;2.78;1.50;;;25.10;99.90;;;;;;4859739;29;36248;-78
2022/07/29 09:31:47;;;;;;;4.20;1.15;;;25.20;99.90;;;;;;4851074;29;38245;-79
2022/07/29 09:34:16;;;;;;;4.40;1.40;;;25.40;99.90;;;;;;4849224;29;40595;-79
2022/07/29 09:36:48;;;;;;;1.92;1.30;;;25.70;99.90;;;;;;4858013;29;39297;-78
2022/07/29 09:39:26;;;;;;;4.55;1.30;;;25.60;99.90;;;;;;4860930;29;37852;-76
2022/07/29 09:41:54;;;;;;;2.60;1.00;;;25.80;99.90;;;;;;4849185;29;38487;-78
2022/07/29 09:44:21;;;;;;;4.25;1.10;;;25.90;99.90;;;;;;4851183;29;37832;-78
2022/07/29 09:46:59;;;;;;;2.30;1.33;;;25.90;99.90;;;;;;4847070;29;37740;-78
2022/07/29 09:49:25;;;;;;;3.75;1.27;;;25.90;99.90;;;;;;4866377;29;37091;-80
2022/07/29 09:52:05;;;;;;;3.58;1.40;;;25.90;99.90;;;;;;4846008;29;37755;-79
2022/07/29 09:54:36;;;;;;;3.42;1.58;;;25.90;99.90;;;;;;4873028;29;48471;-86
2022/07/29 09:57:04;;;;;;;2.80;1.40;;;25.90;99.90;;;;;;4851193;29;37502;-88
2022/07/29 09:59:31;;;;;;;2.38;1.10;;;26.30;99.90;;;;;;4856132;29;36439;-87
2022/07/29 10:01:57;;;;;;;2.83;1.40;;;26.40;99.90;;;;;;4854225;29;37937;-84
2022/07/29 10:04:23;;;;;;;3.67;1.20;;;26.50;99.90;;;;;;4853219;29;38020;-81
2022/07/29 10:07:01;;;;;;;5.57;1.40;;;26.30;99.90;;;;;;4852144;29;37318;-80
2022/07/29 10:09:27;;;;;;;6.63;1.50;;;26.60;99.90;;;;;;4863287;29;48455;-80
2022/07/29 10:12:13;;;;;;;8.77;1.60;;;26.60;99.90;;;;;;4867700;29;38482;-84
2022/07/29 10:14:40;;;;;;;5.00;1.48;;;26.60;99.90;;;;;;4851985;29;46978;-82
2022/07/29 10:17:07;;;;;;;5.68;1.50;;;26.90;99.90;;;;;;4864255;29;36277;-81
2022/07/29 10:19:35;;;;;;;4.90;1.30;;;26.80;99.90;;;;;;4847684;29;37119;-79
2022/07/29 10:22:05;;;;;;;2.90;1.38;;;27.00;99.90;;;;;;4852447;29;39404;-80
2022/07/29 10:24:32;;;;;;;3.15;1.42;;;27.10;99.90;;;;;;4869459;29;40658;-80
2022/07/29 10:27:01;;;;;;;3.58;1.20;;;27.20;99.90;;;;;;4851086;29;37342;-81
2022/07/29 10:29:28;;;;;;;4.25;1.27;;;27.40;99.90;;;;;;4869502;29;50250;-79
2022/07/29 10:32:07;;;;;;;6.95;1.45;;;27.50;99.90;;;;;;4852567;29;38404;-80
2022/07/29 10:35:15;;;;;;;3.28;1.30;;;27.60;99.90;;;;;;4847399;29;48462;-80
2022/07/29 10:37:57;;;;;;;3.08;1.20;;;27.80;99.90;;;;;;4850891;29;48850;-81
2022/07/29 10:43:23;;;;;;;4.68;1.35;;;27.50;99.90;;;;;;4865378;29;39609;-77
2022/07/29 10:45:56;;;;;;;3.85;1.27;;;27.40;99.90;;;;;;4867533;29;37286;-80
2022/07/29 10:48:22;;;;;;;1.92;0.90;;;27.80;99.90;;;;;;4852009;29;38243;-82
2022/07/29 10:51:04;;;;;;;8.13;1.30;;;28.00;99.90;;;;;;4872122;29;37287;-82
2022/07/29 10:53:47;;;;;;;3.63;1.20;;;28.20;99.90;;;;;;4882248;29;49533;-80
2022/07/29 10:56:28;;;;;;;4.13;1.25;;;28.40;99.90;;;;;;4875317;29;38501;-84
2022/07/29 10:59:17;;;;;;;2.35;1.08;;;28.10;99.90;;;;;;4859403;29;37474;-81
2022/07/29 11:01:44;;;;;;;1.75;0.77;;;28.30;99.90;;;;;;4855615;29;48527;-80
2022/07/29 11:04:10;;;;;;;4.50;1.48;;;28.30;99.90;;;;;;4849878;29;39029;-79
2022/07/29 11:07:04;;;;;;;2.70;1.27;;;28.30;99.90;;;;;;4860087;29;38460;-79
2022/07/29 11:09:30;;;;;;;5.05;1.38;;;28.30;99.90;;;;;;4848490;29;47662;-80
2022/07/29 11:11:57;;;;;;;2.55;1.08;;;28.30;99.90;;;;;;4859799;29;37436;-81
2022/07/29 11:14:55;;;;;;;3.17;1.10;;;28.20;99.90;;;;;;4838646;29;38402;-81
2022/07/29 11:17:21;;;;;;;3.15;1.00;;;28.40;99.90;;;;;;4844515;29;37987;-79
2022/07/29 11:19:47;;;;;;;2.33;0.90;;;28.30;99.90;;;;;;4844445;29;37309;-77
2022/07/29 11:22:32;;;;;;;3.33;1.17;;;28.30;99.90;;;;;;4852237;29;36707;-78
2022/07/29 11:25:16;;;;;;;3.15;1.58;;;28.30;99.90;;;;;;4860192;29;38853;-78
2022/07/29 11:27:43;;;;;;;2.88;1.02;;;28.60;99.90;;;;;;4847581;29;47347;-79
2022/07/29 11:30:11;;;;;;;4.65;1.00;;;28.80;99.90;;;;;;4861977;29;38107;-80
2022/07/29 11:32:39;;;;;;;4.38;1.33;;;28.90;99.90;;;;;;4846956;29;36860;-81
2022/07/29 11:35:17;;;;;;;3.47;1.42;;;28.90;99.90;;;;;;4846511;29;37648;-81
2022/07/29 11:37:43;;;;;;;4.78;1.40;;;28.70;99.90;;;;;;4849108;29;37201;-82
2022/07/29 11:40:12;;;;;;;6.78;1.60;;;28.70;99.90;;;;;;4863802;29;38219;-82
2022/07/29 11:42:40;;;;;;;3.35;1.08;;;28.80;99.90;;;;;;4847684;29;38274;-79
2022/07/29 11:45:23;;;;;;;2.38;1.40;;;28.70;99.90;;;;;;4865479;29;38816;-81
2022/07/29 11:47:52;;;;;;;4.10;1.38;;;28.70;99.90;;;;;;4842098;29;38875;-84
2022/07/29 11:50:33;;;;;;;3.70;1.40;;;28.40;99.90;;;;;;4839534;29;37605;-82
2022/07/29 11:53:00;;;;;;;3.65;1.00;;;28.50;99.90;;;;;;4849425;29;36232;-81
2022/07/29 11:55:35;;;;;;;6.32;1.25;;;28.30;99.90;;;;;;4851023;29;38711;-82
2022/07/29 11:58:01;;;;;;;2.95;1.10;;;28.60;99.90;;;;;;4850489;29;38924;-84
2022/07/29 12:00:39;;;;;;;3.03;1.35;;;28.70;99.90;;;;;;4852836;29;39237;-83
2022/07/29 12:03:10;;;;;;;3.53;1.40;;;28.70;99.90;;;;;;4849928;29;37143;-83
2022/07/29 12:05:42;;;;;;;4.35;1.35;;;28.70;99.90;;;;;;4865639;29;38566;-81
2022/07/29 12:08:19;;;;;;;5.38;1.85;;;28.80;99.90;;;;;;4865921;29;39113;-82
2022/07/29 12:10:52;;;;;;;2.95;1.42;;;28.90;99.90;;;;;;4865649;29;38272;-81
2022/07/29 12:13:20;;;;;;;3.38;1.95;;;29.00;99.90;;;;;;4850449;29;35742;-83
2022/07/29 12:15:57;;;;;;;3.45;1.30;;;29.10;99.90;;;;;;4864457;29;40110;-80
2022/07/29 12:18:23;;;;;;;6.00;1.52;;;29.20;99.90;;;;;;4850147;29;38390;-79
2022/07/29 12:20:57;;;;;;;3.92;1.40;;;29.30;99.90;;;;;;4870659;29;38264;-80
2022/07/29 12:23:23;;;;;;;2.47;1.33;;;29.40;99.90;;;;;;4847070;29;36590;-80
2022/07/29 12:25:49;;;;;;;3.83;1.40;;;28.90;99.90;;;;;;4848444;29;37536;-80
2022/07/29 12:28:18;;;;;;;4.78;1.63;;;28.80;99.90;;;;;;4847758;29;38707;-80
2022/07/29 12:30:48;;;;;;;4.80;1.60;;;28.90;99.90;;;;;;4844224;29;39306;-82
2022/07/29 12:33:17;;;;;;;4.00;1.92;;;28.50;99.90;;;;;;4846314;29;36301;-80
2022/07/29 12:35:48;;;;;;;7.75;1.70;;;27.90;99.90;;;;;;4847065;29;38484;-83
2022/07/29 12:38:15;;;;;;;3.03;1.40;;;27.30;99.90;;;;;;4847862;29;38038;-81
2022/07/29 12:40:43;;;;;;;3.17;1.35;;;27.20;99.90;;;;;;4849821;29;36806;-81
2022/07/29 12:43:20;;;;;;;2.78;1.30;;;27.50;99.90;;;;;;4850088;29;36894;-81
2022/07/29 12:45:49;;;;;;;6.18;1.50;;;28.10;99.90;;;;;;4849934;29;37636;-80
2022/07/29 12:48:17;;;;;;;3.88;1.73;;;28.50;99.90;;;;;;4864935;29;38856;-80
2022/07/29 12:50:57;;;;;;;6.03;1.58;;;28.10;99.90;;;;;;4849537;29;38534;-81
2022/07/29 12:53:24;;;;;;;6.93;1.75;;;28.30;99.90;;;;;;4851315;29;37643;-79
2022/07/29 12:55:52;;;;;;;5.38;1.38;;;28.70;99.90;;;;;;4845828;29;39319;-80
2022/07/29 12:58:31;;;;;;;5.90;1.42;;;28.60;99.90;;;;;;4869336;29;38961;-79
2022/07/29 13:01:15;;;;;;;5.47;1.80;;;28.70;99.90;;;;;;4863277;29;38299;-80
2022/07/29 13:03:49;;;;;;;3.95;1.52;;;29.00;99.90;;;;;;4850102;29;47748;-79
2022/07/29 13:06:38;;;;;;;3.35;1.70;;;28.90;99.90;;;;;;4866930;29;38562;-79
2022/07/29 13:09:09;;;;;;;4.07;1.42;;;28.90;99.90;;;;;;4849828;29;37570;-82
2022/07/29 13:11:41;;;;;;;6.30;1.98;;;28.80;99.90;;;;;;4850534;29;38632;-84